My Meet Scores
Camryn Grandgeorge, Phenom Gymnastics - MyMeetScores.com
Top100 | Top Teams | Upcoming Meets | Completed Meets | Latest | Add Scores | Help| Support | Bookmark and Share

Camryn Grandgeorge, Phenom Gymnastics
Personal Bests
LevelVault BarsBeamFloorAA
39.6509.625 9.4009.60037.825
49.5259.600 9.9009.72538.325
59.4759.575 9.6009.65037.775
Scores on America's Top 100as of 10.15.2021
Year Level Vault Bars Beam Floor AA
2020 49.900, 9.82538.325
2020 59.575

Click here to view our exclusive Top 100 Collection
Meet Scores
Date Meet Team Session Level Division Vault Bars Beam Floor AA
2021-03-18 Level 5 & Xcel Gold State Phenom Gymnastics 2 5 Jr C 9.475 2 9.200 6 9.600 1T 9.500 4T 37.775 1
2021-02-26 Kinetic Classic 2021 Phenom Gymnastics 11 5 Younger 9.200 5 9.150 9T 9.025 8 9.650 2 37.025 4
2021-02-12 Super Girl Invite Phenom Gymnastics 2 5 Middle 9.250 5T 8.800 6 9.600 1 9.200 4T 36.850 4
2021-01-21 King Arthur Invitational Phenom Gymnastics 6 5 JR 9.175 3T 8.925 6 9.475 1 9.325 4 36.900 2
2021-01-14 2021 Bravo Classic Phenom Gymnastics 17 5 Jr 9.150 2T 9.025 8 9.550 1 8.750 14T 36.475 5
2020-12-11 Crossroad Classic 2020 Phenom Gymnastics 6 5 Junior 9.050 5T 9.575 1 9.000 8T 9.350 2 36.975 1
2020-03-06 Illinois Level 4 State Championships Phenom Gymnastics 3 4 Youth D 9.525 2 9.600 3 9.825 1 9.375 6 38.325 1
2020-02-21 Kinetic Classic Phenom Gymnastics 07 4 Younger 9.525 1 9.425 11T 9.525 3 9.625 3 38.100 2
2020-02-14 Big Classic Phenom Gymnastics 6B 4 Child C 9.475 7T 9.250 18T 9.350 7T 9.725 1 37.800 4
2020-01-31 Big Chill Phenom Gymnastics 2 4 9 8.825 5 9.400 2 9.900 1 9.325 3 37.450 2
2020-01-17 2020 Bravo Classic Phenom Gymnastics 10B 4 Jr 9.275 1 8.450 17 9.650 2 9.375 5T 36.750 5
2019-12-20 Aspire Classic - 2019 Phenom Gymnastics 8A 4 Middle 9.325 1 9.275 3 9.525 3 9.575 1 37.700 1
2019-12-13 MEGA Magic Classic 2019 Phenom Gymnastics 3B 4 Jr B 9.375 1 9.450 1 8.375 10 9.250 1 36.450 2
2019-03-22 Illinois Gymnastics State Championships Phenom Gymnastics 9 4 Ch D 9.175 4 9.025 8T 9.600 3 9.375 2 37.175 3T
2019-03-01 NGCD Academy's 2019 Flip'r Invitational Phenom Gymnastics 10 4 Child A 8.800 7 8.800 9 9.450 2 9.250 7 36.300 6T
2019-02-15 Big ClassicBIG CLASSIC Phenom Gymnastics 2A 4 Child B 8.775 3 7.850 10 9.600 1 8.800 4T 35.025 4
2019-01-25 King Arthur Invitational Phenom Gymnastics 1 4 Jr B 8.775 4 8.600 8 9.375 3 9.175 5 35.925 5T
2019-01-18 2019 Bravo Classic Phenom Gymnastics 4B 4 Child 9.200 3T 8.700 13 9.250 3 9.200 6T 36.350 7
2018-12-14 2018 Aspire Classic Phenom Gymnastics 5A 4 Younger 9.150 3T 8.700 17 9.375 6 9.400 1 36.625 2
2018-12-07 2018 MEGA Magic Classic Phenom Gymnastics A2 4 Jr A 8.700 7 8.275 15 8.600 14 9.375 3 34.950 9
2018-05-03 Illinois USA Gymnastics Level 3 State Championships Phenom Gymnastics 7 3 Ch D 9.650 7T 9.600 1 8.775 21 9.600 2T 37.625 7
2018-03-02 2018 Flip'r Invitational Phenom Gymnastics 7 3 Child B Age 7 9.550 2 9.625 1 9.375 2 9.275 3 37.825 2
2018-02-16 Big Classic Phenom Gymnastics 6B 3 Child A 8.800 11 9.500 3 9.400 3 9.300 6T 37.000 4
2018-01-19 2018 Bravo Classic Phenom Gymnastics 8B 3 Child 9.400 10 8.450 19 9.200 5 9.500 2T 36.550 9
2017-12-15 2017 Aspire Classic Phenom Gymnastics 11A 3 Younger 9.625 5T 8.475 14 8.950 7 9.500 5T 36.550 7
2017-12-08 Horton Invite At IWU Shirk Center Phenom Gymnastics All 3 Chr B 9.100 12 8.725 9T 8.950 7 9.000 5 35.775 8
2017-11-16 Paul Hamm Thanksgiving Classic - Women Phenom Gymnastics 5 3 Younger 9.400 4 8.450 18T 8.800 13T 8.900 12 35.550 12T
2017-10-28 Twist N Turn Phenom Gymnastics 1 3 All Ages 9.125 21 8.700 10T 9.400 3 9.050 12T 36.275 11
Get your scores on
a t-shirt, pin, or hoodie